Time;durP1;ratioP1;P1;durP2;ratioP2;P2;SDS_P1;SDS_P2;PMS_P1;PMS_P2;Temp;Humidity;BMP_temperature;BMP_pressure;BME280_temperature;BME280_humidity;BME280_pressure;Samples;Min_cycle;Max_cycle;Signal;HPM_P1;HPM_P2
2022/02/25 00:01:45;;;;;;;23.38;15.32;;;18.30;84.00;;;;;;1835317;78;21635;-78
2022/02/25 00:04:16;;;;;;;40.05;23.05;;;18.30;83.90;;;;;;1871058;76;22301;-76
2022/02/25 00:06:47;;;;;;;25.50;17.85;;;18.30;84.00;;;;;;1882009;76;21091;-77
2022/02/25 00:09:17;;;;;;;66.80;41.18;;;18.30;83.80;;;;;;1809926;78;21148;-76
2022/02/25 00:11:48;;;;;;;35.83;21.90;;;18.40;83.90;;;;;;1866995;75;21129;-76
2022/02/25 00:14:19;;;;;;;24.00;16.17;;;18.40;83.50;;;;;;1863798;75;21130;-77
2022/02/25 00:16:49;;;;;;;24.07;16.37;;;18.40;83.50;;;;;;1881759;76;21115;-76
2022/02/25 00:19:20;;;;;;;22.98;16.73;;;18.40;83.90;;;;;;1871132;76;21178;-76
2022/02/25 00:21:51;;;;;;;26.97;19.92;;;18.40;84.00;;;;;;1873891;76;21122;-75
2022/02/25 00:24:22;;;;;;;27.73;19.40;;;18.40;84.20;;;;;;1811529;78;21197;-77
2022/02/25 00:26:53;;;;;;;27.60;18.45;;;18.40;84.80;;;;;;1871014;75;21107;-74
2022/02/25 00:29:23;;;;;;;27.58;18.82;;;18.50;84.10;;;;;;1872378;75;21162;-74
2022/02/25 00:31:59;;;;;;;31.87;20.08;;;18.50;84.60;;;;;;1887886;74;21149;-86
2022/02/25 00:34:26;;;;;;;27.60;18.80;;;18.50;84.90;;;;;;1821599;75;21170;-85
2022/02/25 00:36:57;;;;;;;30.72;20.25;;;18.50;84.70;;;;;;1882904;76;21216;-85
2022/02/25 00:39:27;;;;;;;27.40;18.77;;;18.50;84.30;;;;;;1882859;76;21212;-84
2022/02/25 00:41:58;;;;;;;24.90;17.25;;;18.50;84.10;;;;;;1878885;76;21608;-85
2022/02/25 00:44:29;;;;;;;21.02;14.65;;;18.50;83.80;;;;;;1801226;79;21478;-85
2022/02/25 00:47:00;;;;;;;21.75;15.13;;;18.60;84.00;;;;;;1858697;76;21168;-86
2022/02/25 00:49:30;;;;;;;19.35;13.10;;;18.60;83.60;;;;;;1864208;76;21151;-85
2022/02/25 00:52:01;;;;;;;20.85;13.30;;;18.60;83.20;;;;;;1834181;77;21610;-85
2022/02/25 00:54:32;;;;;;;19.35;12.60;;;18.70;83.10;;;;;;1832616;77;21127;-84
2022/02/25 00:57:05;;;;;;;22.32;14.85;;;18.70;83.00;;;;;;1797821;80;21087;-84
2022/02/25 00:59:36;;;;;;;26.62;14.10;;;18.80;82.70;;;;;;1874257;76;21107;-86
2022/02/25 01:02:07;;;;;;;19.90;12.33;;;18.70;82.60;;;;;;1878745;76;21084;-85
2022/02/25 01:04:38;;;;;;;18.50;11.30;;;18.80;82.60;;;;;;1844250;78;21092;-85
2022/02/25 01:07:09;;;;;;;15.72;10.95;;;18.80;82.30;;;;;;1880523;76;21166;-85
2022/02/25 01:09:40;;;;;;;22.02;10.32;;;18.80;82.00;;;;;;1869644;75;21403;-85
2022/02/25 01:12:11;;;;;;;15.78;10.48;;;18.90;81.70;;;;;;1874644;76;21609;-85
2022/02/25 01:14:42;;;;;;;15.10;10.88;;;18.90;81.30;;;;;;1863903;76;21083;-85
2022/02/25 01:17:13;;;;;;;14.93;9.93;;;18.90;80.90;;;;;;1799137;80;21152;-85
2022/02/25 01:19:43;;;;;;;14.05;10.43;;;19.00;80.90;;;;;;1862382;76;21197;-85
2022/02/25 01:22:14;;;;;;;18.45;12.03;;;19.00;80.80;;;;;;1843987;78;21090;-85
2022/02/25 01:24:45;;;;;;;15.58;11.80;;;19.00;80.90;;;;;;1858723;76;21722;-85
2022/02/25 01:27:16;;;;;;;17.73;11.00;;;19.00;80.80;;;;;;1856718;76;21142;-85
2022/02/25 01:29:47;;;;;;;13.95;9.85;;;19.00;80.80;;;;;;1796862;80;21079;-86
2022/02/25 01:32:19;;;;;;;15.88;11.25;;;19.00;80.50;;;;;;1871551;76;21151;-86
2022/02/25 01:34:50;;;;;;;15.50;10.35;;;19.10;80.60;;;;;;1862316;76;21095;-86
2022/02/25 01:37:21;;;;;;;14.40;9.68;;;19.20;80.40;;;;;;1790007;80;21229;-85
2022/02/25 01:39:52;;;;;;;14.85;10.65;;;19.20;80.30;;;;;;1864837;76;21095;-86
2022/02/25 01:42:24;;;;;;;13.38;10.08;;;19.20;80.20;;;;;;1883007;76;21107;-86
2022/02/25 01:44:54;;;;;;;14.93;10.03;;;19.30;80.10;;;;;;1843966;78;21234;-86
2022/02/25 01:47:25;;;;;;;15.95;10.45;;;19.30;80.10;;;;;;1859286;76;21129;-86
2022/02/25 01:49:56;;;;;;;20.60;12.88;;;19.30;80.30;;;;;;1862750;76;21223;-85
2022/02/25 01:52:26;;;;;;;17.50;11.55;;;19.40;80.40;;;;;;1821277;77;21230;-85
2022/02/25 01:54:57;;;;;;;16.20;10.72;;;19.40;80.20;;;;;;1814111;77;21142;-85
2022/02/25 01:57:27;;;;;;;17.17;10.53;;;19.40;80.20;;;;;;1817876;78;21225;-86
2022/02/25 01:59:58;;;;;;;13.38;9.90;;;19.50;79.90;;;;;;1830620;78;21697;-85
2022/02/25 02:02:29;;;;;;;17.55;10.78;;;19.50;79.50;;;;;;1852555;77;21158;-84
2022/02/25 02:05:02;;;;;;;12.82;9.70;;;19.60;79.20;;;;;;1843064;77;21641;-85
2022/02/25 02:07:32;;;;;;;14.68;9.93;;;19.60;79.50;;;;;;1844327;77;21075;-85
2022/02/25 02:10:03;;;;;;;15.10;10.78;;;19.60;79.50;;;;;;1843003;77;21106;-85
2022/02/25 02:12:34;;;;;;;13.55;10.05;;;19.60;79.40;;;;;;1847061;77;21629;-85
2022/02/25 02:15:06;;;;;;;13.48;9.80;;;19.70;79.40;;;;;;1846240;77;21134;-84
2022/02/25 02:17:37;;;;;;;13.08;9.28;;;19.80;79.10;;;;;;1849637;77;21232;-85
2022/02/25 02:20:08;;;;;;;16.25;10.45;;;19.80;78.60;;;;;;1845502;77;21158;-85
2022/02/25 02:22:39;;;;;;;15.08;9.68;;;19.80;78.10;;;;;;1855528;76;21153;-85
2022/02/25 02:25:10;;;;;;;12.43;9.23;;;19.90;78.00;;;;;;1854817;76;21219;-84
2022/02/25 02:30:14;;;;;;;14.10;9.35;;;20.10;77.80;;;;;;1856333;76;21078;-85
2022/02/25 02:32:45;;;;;;;12.45;9.78;;;20.20;77.40;;;;;;1854896;76;21106;-84
2022/02/25 02:35:16;;;;;;;13.88;9.65;;;20.20;77.00;;;;;;1856472;76;21175;-86
2022/02/25 02:37:48;;;;;;;15.00;10.32;;;20.30;76.50;;;;;;1859900;76;21676;-85
2022/02/25 02:40:19;;;;;;;13.38;9.58;;;20.30;75.90;;;;;;1857878;76;21141;-86
2022/02/25 02:42:50;;;;;;;15.38;10.45;;;20.30;76.00;;;;;;1856108;76;21185;-83
2022/02/25 02:45:21;;;;;;;15.50;10.00;;;20.40;77.00;;;;;;1863526;76;21125;-85
2022/02/25 02:47:52;;;;;;;15.15;10.25;;;20.40;76.30;;;;;;1869333;76;21538;-86
2022/02/25 02:50:23;;;;;;;14.87;10.13;;;20.50;76.00;;;;;;1872218;76;21167;-85
2022/02/25 02:52:54;;;;;;;13.85;10.08;;;20.60;75.50;;;;;;1852819;76;21076;-85
2022/02/25 02:55:25;;;;;;;14.10;9.63;;;20.60;75.00;;;;;;1833773;78;21618;-85
2022/02/25 02:57:56;;;;;;;14.78;9.35;;;20.60;75.30;;;;;;1855034;76;21188;-85
2022/02/25 03:00:26;;;;;;;16.10;10.00;;;20.70;75.20;;;;;;1840366;76;21114;-85
2022/02/25 03:02:57;;;;;;;14.93;10.43;;;20.80;75.10;;;;;;1872338;76;21113;-86
2022/02/25 03:05:29;;;;;;;15.98;10.88;;;20.90;74.70;;;;;;1804472;79;21534;-84
2022/02/25 03:08:00;;;;;;;13.35;9.85;;;20.90;74.60;;;;;;1865662;76;21115;-85
2022/02/25 03:10:31;;;;;;;15.83;10.05;;;21.00;74.60;;;;;;1866553;76;21220;-86
2022/02/25 03:13:02;;;;;;;13.43;10.00;;;21.00;74.50;;;;;;1874606;76;21087;-86
2022/02/25 03:15:34;;;;;;;13.78;9.80;;;21.10;74.10;;;;;;1857146;76;21133;-85
2022/02/25 03:18:06;;;;;;;13.15;9.63;;;21.20;74.10;;;;;;1785415;80;21200;-84
2022/02/25 03:20:37;;;;;;;15.88;9.45;;;21.30;73.40;;;;;;1855758;76;21146;-86
2022/02/25 03:23:08;;;;;;;13.62;9.63;;;21.40;72.80;;;;;;1884596;76;21218;-86
2022/02/25 03:25:38;;;;;;;13.22;8.98;;;21.60;73.30;;;;;;1816381;78;21223;-86
2022/02/25 03:28:09;;;;;;;12.53;9.60;;;21.70;72.90;;;;;;1873453;76;21621;-87
2022/02/25 03:30:40;;;;;;;12.33;9.03;;;21.80;72.30;;;;;;1883497;76;21212;-86
2022/02/25 03:33:10;;;;;;;12.93;8.83;;;22.00;72.10;;;;;;1826830;77;21219;-86
2022/02/25 03:35:41;;;;;;;19.73;9.23;;;22.10;72.10;;;;;;1872914;76;22134;-85
2022/02/25 03:38:12;;;;;;;18.30;9.93;;;22.30;71.50;;;;;;1872631;75;21177;-84
2022/02/25 03:40:42;;;;;;;13.98;9.40;;;22.40;70.20;;;;;;1867381;75;21156;-84
2022/02/25 03:43:14;;;;;;;16.32;9.55;;;22.60;68.70;;;;;;1806338;78;21172;-84
2022/02/25 03:45:45;;;;;;;16.57;9.45;;;22.70;68.90;;;;;;1783537;79;21539;-84
2022/02/25 03:48:16;;;;;;;14.80;9.58;;;22.80;67.90;;;;;;1841025;76;21165;-86
2022/02/25 03:50:47;;;;;;;11.35;8.65;;;22.90;68.70;;;;;;1814612;78;21234;-87
2022/02/25 03:53:18;;;;;;;13.75;9.10;;;23.00;68.20;;;;;;1875203;74;21093;-86
2022/02/25 03:55:48;;;;;;;13.58;8.83;;;23.10;67.30;;;;;;1878351;74;21173;-85
2022/02/25 03:58:19;;;;;;;12.10;9.13;;;23.20;66.80;;;;;;1873548;74;21138;-84
2022/02/25 04:00:49;;;;;;;13.25;9.00;;;23.30;66.90;;;;;;1886137;76;21188;-86
2022/02/25 04:03:20;;;;;;;12.85;8.73;;;23.40;67.40;;;;;;1858844;76;21653;-86
2022/02/25 04:05:51;;;;;;;16.27;8.83;;;23.40;67.00;;;;;;1867745;76;21106;-85
2022/02/25 04:08:22;;;;;;;14.65;9.00;;;23.50;66.80;;;;;;1872733;76;21219;-86
2022/02/25 04:10:53;;;;;;;14.30;9.25;;;23.60;66.80;;;;;;1868361;76;21970;-85
2022/02/25 04:13:24;;;;;;;15.08;9.78;;;23.70;66.90;;;;;;1877163;74;21120;-85
2022/02/25 04:15:55;;;;;;;12.53;9.28;;;23.80;66.70;;;;;;1871494;76;21174;-86
2022/02/25 04:18:25;;;;;;;13.28;8.55;;;23.90;66.40;;;;;;1875317;76;21238;-86
2022/02/25 04:20:56;;;;;;;11.20;8.03;;;24.00;65.50;;;;;;1874121;75;21124;-86
2022/02/25 04:23:27;;;;;;;12.33;8.53;;;24.00;64.60;;;;;;1878571;75;21632;-85
2022/02/25 04:25:58;;;;;;;12.18;8.25;;;24.10;65.20;;;;;;1873316;76;21155;-86
2022/02/25 04:28:28;;;;;;;14.07;9.18;;;24.20;64.40;;;;;;1884922;76;21193;-86
2022/02/25 04:30:59;;;;;;;12.73;9.13;;;24.40;64.00;;;;;;1875360;76;21667;-86
2022/02/25 04:33:30;;;;;;;11.57;8.28;;;24.50;63.70;;;;;;1882035;76;21204;-86
2022/02/25 04:36:00;;;;;;;11.85;8.80;;;24.60;62.20;;;;;;1879720;76;21123;-85
2022/02/25 04:38:31;;;;;;;12.68;8.85;;;24.60;62.50;;;;;;1875392;76;21620;-84
2022/02/25 04:41:02;;;;;;;12.43;9.18;;;24.70;61.50;;;;;;1873695;76;21900;-85
2022/02/25 04:43:34;;;;;;;12.93;8.70;;;24.80;61.50;;;;;;1879593;74;21173;-84
2022/02/25 04:46:05;;;;;;;15.40;9.15;;;24.80;61.60;;;;;;1875536;76;21095;-85
2022/02/25 04:48:35;;;;;;;12.93;9.13;;;24.90;60.90;;;;;;1872341;76;21206;-85
2022/02/25 04:51:06;;;;;;;13.22;9.23;;;24.90;60.90;;;;;;1878910;76;21150;-84
2022/02/25 04:53:38;;;;;;;11.75;9.25;;;24.90;61.30;;;;;;1872461;75;21095;-86
2022/02/25 04:56:10;;;;;;;14.53;10.03;;;25.00;61.80;;;;;;1873718;76;21251;-85
2022/02/25 04:58:41;;;;;;;12.90;9.18;;;25.10;61.20;;;;;;1878288;76;21153;-85
2022/02/25 05:01:12;;;;;;;12.70;9.38;;;25.30;59.90;;;;;;1889683;76;21131;-84
2022/02/25 05:03:43;;;;;;;13.55;10.05;;;25.30;59.90;;;;;;1884044;76;21126;-85
2022/02/25 05:06:14;;;;;;;13.98;10.13;;;25.50;59.60;;;;;;1866398;76;21091;-85
2022/02/25 05:08:45;;;;;;;15.35;10.72;;;25.50;59.20;;;;;;1830860;77;21113;-85
2022/02/25 05:11:17;;;;;;;12.37;9.88;;;25.50;59.50;;;;;;1830013;77;21077;-84
2022/02/25 05:13:48;;;;;;;13.95;10.13;;;25.50;60.00;;;;;;1810947;79;21176;-85
2022/02/25 05:21:24;;;;;;;14.23;9.75;;;25.70;58.20;;;;;;1870368;76;21123;-85
2022/02/25 05:23:54;;;;;;;16.27;9.73;;;25.70;58.80;;;;;;1863762;76;21244;-85
2022/02/25 05:26:25;;;;;;;15.53;10.40;;;25.80;58.90;;;;;;1868700;76;21123;-84
2022/02/25 05:28:56;;;;;;;13.03;9.65;;;25.80;58.60;;;;;;1820290;77;21135;-85
2022/02/25 05:31:27;;;;;;;13.30;9.53;;;25.90;57.80;;;;;;1819003;77;21173;-85
2022/02/25 05:33:57;;;;;;;14.63;10.05;;;25.90;58.10;;;;;;1809547;79;21182;-85
2022/02/25 05:36:28;;;;;;;14.05;9.63;;;25.90;58.80;;;;;;1843402;76;21131;-84
2022/02/25 05:38:58;;;;;;;10.95;9.20;;;26.00;57.70;;;;;;1867731;76;21209;-84
2022/02/25 05:41:29;;;;;;;12.25;9.23;;;26.10;57.90;;;;;;1866281;76;21064;-85
2022/02/25 05:44:00;;;;;;;13.58;9.50;;;26.10;58.50;;;;;;1867848;76;21220;-84
2022/02/25 05:46:31;;;;;;;13.18;9.65;;;26.30;57.60;;;;;;1864360;76;21495;-85
2022/02/25 05:49:02;;;;;;;12.70;9.68;;;26.30;57.70;;;;;;1876606;76;21190;-87
2022/02/25 05:51:33;;;;;;;15.10;9.43;;;26.30;56.70;;;;;;1868983;76;21231;-86
2022/02/25 05:54:04;;;;;;;14.38;9.38;;;26.40;56.30;;;;;;1870592;76;21111;-86
2022/02/25 05:56:35;;;;;;;17.15;10.35;;;26.40;57.00;;;;;;1872225;75;21158;-84
2022/02/25 05:59:06;;;;;;;13.35;9.85;;;26.40;56.70;;;;;;1867394;76;21188;-86
2022/02/25 06:01:36;;;;;;;13.28;9.35;;;26.40;56.40;;;;;;1872608;76;21119;-85
2022/02/25 06:04:07;;;;;;;15.32;10.03;;;26.50;56.10;;;;;;1789545;79;21122;-83
2022/02/25 06:06:38;;;;;;;14.65;9.75;;;26.50;55.70;;;;;;1875592;76;21201;-84
2022/02/25 06:09:09;;;;;;;14.23;9.20;;;26.60;55.80;;;;;;1873330;76;21539;-85
2022/02/25 06:11:40;;;;;;;14.63;10.28;;;26.60;55.60;;;;;;1834231;77;21142;-85
2022/02/25 06:14:11;;;;;;;14.00;10.05;;;26.60;55.50;;;;;;1873451;75;21108;-86
2022/02/25 06:16:42;;;;;;;15.28;10.53;;;26.70;54.90;;;;;;1882776;76;21162;-84
2022/02/25 06:19:13;;;;;;;18.77;13.43;;;26.80;55.20;;;;;;1877184;76;21112;-84
2022/02/25 06:21:44;;;;;;;11.57;9.48;;;26.80;54.70;;;;;;1867076;76;21095;-84
2022/02/25 06:24:15;;;;;;;14.60;10.40;;;26.80;54.60;;;;;;1782532;80;21659;-84
2022/02/25 06:26:46;;;;;;;12.03;8.90;;;26.90;54.80;;;;;;1883029;76;21216;-84
2022/02/25 06:29:18;;;;;;;13.90;9.38;;;26.90;54.10;;;;;;1870951;75;21263;-84
2022/02/25 06:31:49;;;;;;;13.55;9.78;;;27.00;54.50;;;;;;1791913;78;21697;-84
2022/02/25 06:34:20;;;;;;;13.00;9.60;;;27.00;54.00;;;;;;1867903;76;21220;-85
2022/02/25 06:36:50;;;;;;;15.50;10.58;;;27.00;54.70;;;;;;1873523;76;21143;-84
2022/02/25 06:39:21;;;;;;;15.18;10.03;;;27.00;54.00;;;;;;1874006;76;21613;-85
2022/02/25 06:41:52;;;;;;;17.37;9.70;;;27.00;54.30;;;;;;1872825;76;21076;-85
2022/02/25 06:44:22;;;;;;;12.40;9.15;;;27.00;53.80;;;;;;1807382;79;21096;-85
2022/02/25 06:46:53;;;;;;;11.18;8.75;;;27.00;53.80;;;;;;1873815;76;21165;-84
2022/02/25 06:49:24;;;;;;;14.93;9.15;;;27.00;53.60;;;;;;1877316;76;21115;-85
2022/02/25 06:51:54;;;;;;;14.28;10.40;;;27.10;53.50;;;;;;1798805;80;21217;-86
2022/02/25 06:54:25;;;;;;;10.50;9.15;;;27.00;54.40;;;;;;1869033;75;21103;-87
2022/02/25 06:56:56;;;;;;;13.72;8.95;;;27.10;54.20;;;;;;1877754;75;21506;-86
2022/02/25 06:59:27;;;;;;;15.58;9.10;;;27.10;54.80;;;;;;1865574;76;21138;-87
2022/02/25 07:01:57;;;;;;;13.08;9.03;;;27.10;53.60;;;;;;1806204;79;21246;-86
2022/02/25 07:04:28;;;;;;;14.45;9.33;;;27.10;53.70;;;;;;1859369;76;21135;-86
2022/02/25 07:06:59;;;;;;;12.43;9.30;;;27.10;53.70;;;;;;1869433;76;21086;-86
2022/02/25 07:09:29;;;;;;;11.48;9.55;;;27.20;53.80;;;;;;1873043;76;21130;-85
2022/02/25 07:12:00;;;;;;;13.03;9.68;;;27.20;53.80;;;;;;1873822;76;21216;-86
2022/02/25 07:14:33;;;;;;;13.05;9.85;;;27.30;53.20;;;;;;1803812;79;21159;-86
2022/02/25 07:17:03;;;;;;;12.20;9.68;;;27.30;54.10;;;;;;1874892;76;21135;-85
2022/02/25 07:19:34;;;;;;;14.00;9.30;;;27.30;53.60;;;;;;1878802;75;21158;-83
2022/02/25 07:22:05;;;;;;;14.87;10.23;;;27.30;53.60;;;;;;1816993;78;21179;-84
2022/02/25 07:24:36;;;;;;;13.03;9.10;;;27.30;53.30;;;;;;1809973;78;21205;-85
2022/02/25 07:27:07;;;;;;;14.35;9.43;;;27.30;53.30;;;;;;1833172;78;21069;-85
2022/02/25 07:29:37;;;;;;;14.35;8.68;;;27.30;53.00;;;;;;1861734;76;21202;-85
2022/02/25 07:32:08;;;;;;;13.32;9.78;;;27.30;53.00;;;;;;1859015;75;21164;-84
2022/02/25 07:34:39;;;;;;;16.32;10.55;;;27.30;52.70;;;;;;1805989;78;21188;-86
2022/02/25 07:37:10;;;;;;;13.28;9.65;;;27.30;52.60;;;;;;1866304;76;21064;-86
2022/02/25 07:39:42;;;;;;;12.13;9.20;;;27.30;52.80;;;;;;1868031;76;21288;-85
2022/02/25 07:42:13;;;;;;;11.88;9.20;;;27.20;52.90;;;;;;1837307;78;21080;-85
2022/02/25 07:44:43;;;;;;;11.48;9.53;;;27.20;53.00;;;;;;1876103;76;21224;-85
2022/02/25 07:47:16;;;;;;;16.70;10.00;;;27.20;52.90;;;;;;1881121;76;21682;-85
2022/02/25 07:49:47;;;;;;;13.40;9.70;;;27.20;53.30;;;;;;1793949;79;21630;-84
2022/02/25 07:52:18;;;;;;;12.73;9.73;;;27.10;53.50;;;;;;1860163;76;21618;-83
2022/02/25 07:54:49;;;;;;;14.33;9.28;;;27.10;53.10;;;;;;1799418;80;21733;-85
2022/02/25 07:57:20;;;;;;;13.88;9.40;;;27.10;52.70;;;;;;1871399;76;21194;-85
2022/02/25 07:59:52;;;;;;;13.08;8.88;;;27.00;52.90;;;;;;1879030;75;21202;-85
2022/02/25 08:02:24;;;;;;;12.45;9.63;;;27.00;53.10;;;;;;1881180;76;21192;-85
2022/02/25 08:04:55;;;;;;;12.18;9.08;;;27.00;53.50;;;;;;1869215;76;21076;-86
2022/02/25 08:07:27;;;;;;;16.77;9.48;;;27.00;53.10;;;;;;1872404;75;21158;-86
2022/02/25 08:09:58;;;;;;;13.50;10.50;;;27.00;53.20;;;;;;1866320;76;21191;-86
2022/02/25 08:12:31;;;;;;;14.68;9.60;;;27.00;53.50;;;;;;1851335;75;21104;-86
2022/02/25 08:15:02;;;;;;;12.60;9.83;;;27.00;53.00;;;;;;1873821;76;21095;-86
2022/02/25 08:17:32;;;;;;;13.30;9.45;;;27.00;52.90;;;;;;1862140;76;21077;-84
2022/02/25 08:20:07;;;;;;;12.82;9.45;;;27.00;53.30;;;;;;1865051;76;21139;-86
2022/02/25 08:22:38;;;;;;;12.53;9.20;;;27.00;52.90;;;;;;1867925;76;21554;-85
2022/02/25 08:25:09;;;;;;;11.43;8.63;;;27.00;52.70;;;;;;1873516;76;21143;-85
2022/02/25 08:27:53;;;;;;;12.13;8.50;;;26.90;52.90;;;;;;1862349;76;21150;-86
2022/02/25 08:30:27;;;;;;;12.05;8.33;;;26.90;52.90;;;;;;1850834;76;21192;-85
2022/02/25 08:33:01;;;;;;;11.43;8.75;;;27.00;53.50;;;;;;1872047;76;21190;-86
2022/02/25 08:35:35;;;;;;;10.80;8.73;;;26.90;53.10;;;;;;1876625;76;21132;-88
2022/02/25 08:38:07;;;;;;;12.47;8.43;;;27.00;53.10;;;;;;1884613;76;21173;-86
2022/02/25 08:40:39;;;;;;;12.05;9.03;;;27.00;53.30;;;;;;1885696;76;21119;-86
2022/02/25 08:43:11;;;;;;;10.45;8.35;;;27.00;53.10;;;;;;1885576;76;21665;-85
2022/02/25 08:45:44;;;;;;;12.95;8.70;;;27.00;53.60;;;;;;1863324;76;21189;-85
2022/02/25 08:48:14;;;;;;;9.95;8.20;;;27.00;53.40;;;;;;1866042;76;21126;-85
2022/02/25 08:50:45;;;;;;;14.18;9.33;;;27.00;53.20;;;;;;1863952;76;21229;-85
2022/02/25 08:53:16;;;;;;;12.50;9.13;;;27.00;52.60;;;;;;1788986;78;21159;-85
2022/02/25 08:55:47;;;;;;;14.68;8.45;;;26.90;52.70;;;;;;1861345;76;21232;-86
2022/02/25 08:58:20;;;;;;;11.15;8.78;;;26.90;52.60;;;;;;1782838;79;21242;-86
2022/02/25 09:00:50;;;;;;;11.08;8.13;;;26.90;53.20;;;;;;1780041;79;21242;-72
2022/02/25 09:03:21;;;;;;;13.38;9.88;;;26.90;53.20;;;;;;1761584;81;21763;-72
2022/02/25 09:05:52;;;;;;;13.08;9.30;;;26.80;53.90;;;;;;1777215;79;21340;-70
2022/02/25 09:08:23;;;;;;;12.88;9.13;;;26.90;53.40;;;;;;1763611;79;21259;-72
2022/02/25 09:10:55;;;;;;;13.48;9.08;;;26.90;53.00;;;;;;1804563;78;21612;-73
2022/02/25 09:13:26;;;;;;;12.23;8.93;;;26.90;52.60;;;;;;1832266;77;21153;-72
2022/02/25 09:15:57;;;;;;;12.40;8.95;;;26.80;52.90;;;;;;1830846;77;21146;-72
2022/02/25 09:18:28;;;;;;;13.72;8.80;;;26.80;52.80;;;;;;1834660;77;21217;-73
2022/02/25 09:20:59;;;;;;;13.58;9.33;;;26.80;52.90;;;;;;1786502;79;21653;-71
2022/02/25 09:23:29;;;;;;;12.03;8.95;;;26.80;52.70;;;;;;1833523;77;21216;-72
2022/02/25 09:26:00;;;;;;;15.45;8.85;;;26.80;52.50;;;;;;1827192;78;21197;-71
2022/02/25 09:28:31;;;;;;;14.80;9.40;;;26.80;52.80;;;;;;1830083;77;21234;-71
2022/02/25 09:31:02;;;;;;;14.65;10.35;;;26.80;53.30;;;;;;1835458;77;21130;-72
2022/02/25 09:33:33;;;;;;;17.50;12.03;;;26.80;53.00;;;;;;1829437;78;21154;-71
2022/02/25 09:36:05;;;;;;;17.10;9.68;;;26.70;53.30;;;;;;1831811;77;21132;-73
2022/02/25 09:38:36;;;;;;;16.30;10.50;;;26.60;53.10;;;;;;1835044;77;21146;-72
2022/02/25 09:41:08;;;;;;;14.50;10.08;;;26.60;53.50;;;;;;1840338;77;21223;-72
2022/02/25 09:43:39;;;;;;;12.93;8.70;;;26.60;53.50;;;;;;1797705;79;21609;-72
2022/02/25 09:46:10;;;;;;;19.82;13.93;;;26.60;53.70;;;;;;1803412;78;21164;-72
2022/02/25 09:48:41;;;;;;;18.45;10.00;;;26.60;53.80;;;;;;1838514;77;21147;-71
2022/02/25 09:51:12;;;;;;;14.23;10.68;;;26.50;53.90;;;;;;1835165;77;21565;-70
2022/02/25 09:53:43;;;;;;;12.15;9.15;;;26.50;53.70;;;;;;1835400;77;21159;-72
2022/02/25 09:56:13;;;;;;;13.85;9.10;;;26.50;53.70;;;;;;1799876;78;21122;-71
2022/02/25 09:58:44;;;;;;;11.28;9.23;;;26.50;53.30;;;;;;1823712;77;21196;-71
2022/02/25 10:01:16;;;;;;;13.50;8.70;;;26.50;53.80;;;;;;1818084;77;21483;-71
2022/02/25 10:03:49;;;;;;;13.55;9.05;;;26.50;53.80;;;;;;1824809;77;21598;-73
2022/02/25 10:06:22;;;;;;;13.38;9.00;;;26.40;53.60;;;;;;1826069;77;21615;-72
2022/02/25 10:08:55;;;;;;;12.25;9.20;;;26.40;53.90;;;;;;1819587;77;21631;-73
2022/02/25 10:11:25;;;;;;;11.15;9.10;;;26.40;53.90;;;;;;1869949;76;21779;-72
2022/02/25 10:13:58;;;;;;;16.20;9.43;;;26.30;53.60;;;;;;1870036;75;22177;-72
2022/02/25 10:16:30;;;;;;;14.98;8.98;;;26.30;53.60;;;;;;1868335;75;21120;-73
2022/02/25 10:19:02;;;;;;;13.30;8.95;;;26.30;54.30;;;;;;1833783;78;21154;-73
2022/02/25 10:21:33;;;;;;;11.97;9.05;;;26.30;53.90;;;;;;1867450;75;21118;-74
2022/02/25 10:24:06;;;;;;;14.00;8.93;;;26.20;54.20;;;;;;1875342;75;21260;-72
2022/02/25 10:26:38;;;;;;;11.03;8.95;;;26.20;54.20;;;;;;1870081;75;21115;-72
2022/02/25 10:29:09;;;;;;;15.70;9.85;;;26.20;54.10;;;;;;1798164;80;22049;-71
2022/02/25 10:31:41;;;;;;;12.93;9.45;;;26.10;54.30;;;;;;1875554;75;21786;-71
2022/02/25 10:34:16;;;;;;;11.55;9.03;;;26.10;54.10;;;;;;1868848;76;21751;-72
2022/02/25 10:36:49;;;;;;;15.23;9.28;;;26.10;53.90;;;;;;1799313;78;21594;-71
2022/02/25 10:39:22;;;;;;;16.02;11.45;;;26.10;54.20;;;;;;1860575;75;21723;-71
2022/02/25 10:41:55;;;;;;;12.73;9.83;;;26.10;54.00;;;;;;1872098;75;21125;-71
2022/02/25 10:44:28;;;;;;;13.35;9.90;;;26.10;54.30;;;;;;1876834;75;21162;-71
2022/02/25 10:47:01;;;;;;;12.20;10.23;;;26.00;54.60;;;;;;1872294;75;21583;-72
2022/02/25 10:49:32;;;;;;;14.45;10.50;;;26.00;54.80;;;;;;1793851;78;21150;-71
2022/02/25 10:52:05;;;;;;;15.00;10.55;;;25.90;54.60;;;;;;1867342;76;21103;-71
2022/02/25 10:54:39;;;;;;;15.20;11.63;;;25.90;54.70;;;;;;1868197;75;21653;-72
2022/02/25 10:57:14;;;;;;;15.43;11.80;;;25.90;54.70;;;;;;1861852;75;21459;-71
2022/02/25 10:59:44;;;;;;;15.75;11.33;;;25.90;54.70;;;;;;1872202;75;21124;-72
2022/02/25 11:02:18;;;;;;;18.30;13.35;;;25.90;54.90;;;;;;1866302;75;21208;-72
2022/02/25 11:04:51;;;;;;;15.65;11.40;;;25.90;55.00;;;;;;1870198;76;21779;-72
2022/02/25 11:07:22;;;;;;;16.48;12.80;;;25.80;55.60;;;;;;1867822;75;21169;-72
2022/02/25 11:09:52;;;;;;;16.70;11.90;;;25.80;55.30;;;;;;1806071;78;21610;-72
2022/02/25 11:12:25;;;;;;;17.20;11.85;;;25.70;55.50;;;;;;1818385;77;21760;-71
2022/02/25 11:14:57;;;;;;;15.90;12.53;;;25.70;55.60;;;;;;1802390;78;21110;-86
2022/02/25 11:17:29;;;;;;;22.07;14.55;;;25.70;55.70;;;;;;1801773;78;21148;-86
2022/02/25 11:20:06;;;;;;;19.85;12.47;;;25.70;56.10;;;;;;1810968;78;21072;-86
2022/02/25 11:22:40;;;;;;;21.55;13.95;;;25.70;56.30;;;;;;1807117;78;21197;-85
2022/02/25 11:25:14;;;;;;;19.77;13.38;;;25.60;56.10;;;;;;1871915;75;21448;-85
2022/02/25 11:27:46;;;;;;;21.87;14.80;;;25.60;56.40;;;;;;1869431;75;21135;-86
2022/02/25 11:30:20;;;;;;;22.50;13.60;;;25.50;56.50;;;;;;1871123;76;21657;-85
2022/02/25 11:32:53;;;;;;;21.10;14.78;;;25.50;56.60;;;;;;1867957;76;21072;-85
2022/02/25 11:35:27;;;;;;;21.90;13.80;;;25.50;56.80;;;;;;1879196;75;21153;-86
2022/02/25 11:38:00;;;;;;;19.75;13.53;;;25.50;57.20;;;;;;1878918;76;21602;-86
2022/02/25 11:40:33;;;;;;;21.27;13.83;;;25.40;57.40;;;;;;1872345;76;21115;-86
2022/02/25 11:43:07;;;;;;;22.52;13.88;;;25.40;57.70;;;;;;1878554;76;21236;-86
2022/02/25 11:45:40;;;;;;;24.52;16.05;;;25.30;57.70;;;;;;1866916;76;21179;-86
2022/02/25 11:48:10;;;;;;;25.43;16.10;;;25.30;57.80;;;;;;1872792;76;21603;-86
2022/02/25 11:50:42;;;;;;;21.25;15.40;;;25.30;58.10;;;;;;1877755;76;21629;-85
2022/02/25 11:53:16;;;;;;;26.27;15.98;;;25.20;58.40;;;;;;1873237;76;21157;-85
2022/02/25 11:55:49;;;;;;;23.15;16.73;;;25.20;58.70;;;;;;1859096;75;21218;-86
2022/02/25 11:58:22;;;;;;;25.50;16.70;;;25.10;59.00;;;;;;1881102;76;21155;-86
2022/02/25 12:00:55;;;;;;;24.25;15.78;;;25.10;59.20;;;;;;1878556;76;21210;-86
2022/02/25 12:03:26;;;;;;;25.08;15.95;;;25.00;59.90;;;;;;1791896;80;21157;-85
2022/02/25 12:05:57;;;;;;;26.68;16.62;;;25.00;59.70;;;;;;1868193;76;21192;-86
2022/02/25 12:08:29;;;;;;;22.42;15.98;;;24.90;59.90;;;;;;1871246;76;21182;-86
2022/02/25 12:11:02;;;;;;;22.07;16.02;;;24.90;59.90;;;;;;1858888;76;21111;-87
2022/02/25 12:13:33;;;;;;;26.50;16.25;;;24.80;59.80;;;;;;1866998;76;21119;-86
2022/02/25 12:16:06;;;;;;;22.32;15.78;;;24.80;59.90;;;;;;1796032;80;21224;-85
2022/02/25 12:18:39;;;;;;;23.45;15.88;;;24.80;60.80;;;;;;1872265;76;21107;-86
2022/02/25 12:21:11;;;;;;;24.52;15.30;;;24.80;60.00;;;;;;1865691;76;21097;-86
2022/02/25 12:23:46;;;;;;;32.40;17.45;;;24.70;60.00;;;;;;1830379;76;21106;-86
2022/02/25 12:26:18;;;;;;;29.75;16.42;;;24.70;60.20;;;;;;1841828;78;21258;-85
2022/02/25 12:28:53;;;;;;;24.18;15.93;;;24.70;60.40;;;;;;1867636;76;21131;-85
2022/02/25 12:31:25;;;;;;;26.97;16.80;;;24.60;60.40;;;;;;1867700;76;21252;-85
2022/02/25 12:33:59;;;;;;;23.62;16.55;;;24.60;60.60;;;;;;1873756;76;21138;-84
2022/02/25 12:36:32;;;;;;;27.13;15.63;;;24.60;60.60;;;;;;1861414;76;21527;-84
2022/02/25 12:39:05;;;;;;;26.55;16.12;;;24.60;60.70;;;;;;1880248;74;21371;-84
2022/02/25 12:41:38;;;;;;;27.07;16.10;;;24.60;60.80;;;;;;1820239;78;21492;-86
2022/02/25 12:44:11;;;;;;;25.00;17.27;;;24.50;60.90;;;;;;1822288;78;21153;-84
2022/02/25 12:46:45;;;;;;;26.25;16.87;;;24.50;61.10;;;;;;1863028;75;21210;-85
2022/02/25 12:49:18;;;;;;;29.37;17.00;;;24.40;61.20;;;;;;1879438;76;21613;-85
2022/02/25 12:51:50;;;;;;;25.35;17.12;;;24.40;61.30;;;;;;1809384;78;21234;-85
2022/02/25 12:54:25;;;;;;;27.17;17.27;;;24.40;61.30;;;;;;1887035;75;21154;-84
2022/02/25 12:56:58;;;;;;;29.70;17.15;;;24.40;61.60;;;;;;1880131;75;21079;-85
2022/02/25 12:59:33;;;;;;;24.75;17.27;;;24.40;61.70;;;;;;1874191;75;21917;-85
2022/02/25 13:02:06;;;;;;;29.57;17.82;;;24.30;61.70;;;;;;1863912;75;21692;-85